Time;durP1;ratioP1;P1;durP2;ratioP2;P2;SDS_P1;SDS_P2;PMS_P1;PMS_P2;Temp;Humidity;BMP_temperature;BMP_pressure;BME280_temperature;BME280_humidity;BME280_pressure;Samples;Min_cycle;Max_cycle;Signal;HPM_P1;HPM_P2
2023/06/11 00:00:41;;;;;;;8.57;7.65;;;22.80;64.40;;;;;;4994771;28;20022;-65
2023/06/11 00:03:07;;;;;;;11.13;8.23;;;22.80;64.30;;;;;;4996389;28;20038;-68
2023/06/11 00:05:32;;;;;;;8.88;7.97;;;22.80;64.30;;;;;;4994487;28;20034;-68
2023/06/11 00:08:02;;;;;;;11.95;8.13;;;22.80;64.30;;;;;;5000625;28;20069;-68
2023/06/11 00:10:27;;;;;;;10.77;8.02;;;22.80;64.30;;;;;;4999958;28;20490;-63
2023/06/11 00:12:53;;;;;;;9.85;7.45;;;22.80;64.40;;;;;;4998686;28;20054;-66
2023/06/11 00:15:18;;;;;;;10.27;8.00;;;22.80;64.40;;;;;;4997021;28;20673;-66
2023/06/11 00:17:45;;;;;;;11.02;8.50;;;22.80;64.30;;;;;;4998681;28;20038;-67
2023/06/11 00:20:11;;;;;;;9.43;7.82;;;22.80;64.30;;;;;;4998209;28;20030;-65
2023/06/11 00:22:41;;;;;;;8.68;7.78;;;22.80;64.30;;;;;;4996430;28;20049;-68
2023/06/11 00:25:08;;;;;;;9.90;8.35;;;22.80;64.40;;;;;;4999422;28;20033;-68
2023/06/11 00:27:37;;;;;;;10.82;8.52;;;22.80;64.40;;;;;;4991531;28;20035;-69
2023/06/11 00:30:04;;;;;;;11.05;8.38;;;22.80;64.40;;;;;;4999771;28;20641;-68
2023/06/11 00:32:34;;;;;;;9.88;8.20;;;22.80;64.40;;;;;;4993626;28;20084;-68
2023/06/11 00:35:00;;;;;;;8.98;7.70;;;22.80;64.40;;;;;;4998266;28;20038;-69
2023/06/11 00:37:26;;;;;;;8.93;7.90;;;22.80;64.40;;;;;;4992289;28;20034;-68
2023/06/11 00:39:52;;;;;;;11.32;8.25;;;22.80;64.40;;;;;;5002120;28;20030;-68
2023/06/11 00:42:19;;;;;;;10.35;8.27;;;22.80;64.40;;;;;;4998727;28;20038;-68
2023/06/11 00:44:46;;;;;;;10.65;8.48;;;22.80;64.40;;;;;;4996509;28;20033;-68
2023/06/11 00:47:13;;;;;;;10.77;8.38;;;22.80;64.40;;;;;;4998515;28;20501;-69
2023/06/11 00:49:38;;;;;;;9.63;8.50;;;22.80;64.40;;;;;;4999460;28;20129;-69
2023/06/11 00:52:08;;;;;;;9.85;7.88;;;22.80;64.40;;;;;;4996574;28;20223;-69
2023/06/11 00:54:34;;;;;;;13.15;7.82;;;22.80;64.40;;;;;;4995036;28;20125;-68
2023/06/11 00:56:59;;;;;;;9.70;7.70;;;22.80;64.40;;;;;;4997072;28;20141;-68
2023/06/11 00:59:25;;;;;;;9.13;7.70;;;22.80;64.40;;;;;;5004765;28;20014;-68
2023/06/11 01:02:21;;;;;;;11.50;8.00;;;22.80;64.40;;;;;;4992565;28;20031;-68
2023/06/11 01:04:50;;;;;;;9.07;7.55;;;22.80;64.40;;;;;;4997994;28;20034;-68
2023/06/11 01:07:18;;;;;;;8.73;7.20;;;22.80;64.40;;;;;;5002606;28;20045;-68
2023/06/11 01:09:45;;;;;;;8.45;7.07;;;22.80;64.40;;;;;;5014001;28;20034;-67
2023/06/11 01:12:12;;;;;;;8.38;7.32;;;22.70;64.40;;;;;;4995967;28;20030;-68
2023/06/11 01:14:38;;;;;;;7.85;7.05;;;22.70;64.40;;;;;;4997454;28;20113;-68
2023/06/11 01:17:15;;;;;;;8.02;6.97;;;22.80;64.50;;;;;;4996642;28;20034;-68
2023/06/11 01:19:59;;;;;;;8.82;7.93;;;22.80;64.50;;;;;;4997922;28;20034;-68
2023/06/11 01:22:42;;;;;;;9.02;7.70;;;22.80;64.40;;;;;;4987560;28;20038;-68
2023/06/11 01:25:24;;;;;;;9.80;8.05;;;22.70;64.40;;;;;;5001254;28;20025;-67
2023/06/11 01:27:58;;;;;;;9.43;7.53;;;22.70;64.40;;;;;;4999073;28;20035;-68
2023/06/11 01:30:24;;;;;;;8.98;7.25;;;22.70;64.40;;;;;;5004635;28;20068;-67
2023/06/11 01:32:55;;;;;;;7.88;7.07;;;22.80;64.40;;;;;;4997563;28;20034;-68
2023/06/11 01:35:22;;;;;;;9.02;6.90;;;22.70;64.30;;;;;;4996994;28;20037;-67
2023/06/11 01:37:55;;;;;;;8.45;6.85;;;22.70;64.40;;;;;;4979878;28;20133;-67
2023/06/11 01:40:24;;;;;;;7.05;6.30;;;22.70;64.40;;;;;;5000255;28;20105;-67
2023/06/11 01:42:50;;;;;;;7.82;6.82;;;22.70;64.40;;;;;;4999300;28;20042;-68
2023/06/11 01:45:18;;;;;;;8.20;7.20;;;22.70;64.40;;;;;;5002704;28;20489;-67
2023/06/11 01:47:45;;;;;;;7.63;6.85;;;22.70;64.30;;;;;;5001749;28;20069;-63
2023/06/11 01:50:13;;;;;;;8.52;6.60;;;22.70;64.30;;;;;;5000130;28;20034;-67
2023/06/11 01:52:39;;;;;;;8.13;6.72;;;22.70;64.40;;;;;;5000031;28;20587;-68
2023/06/11 01:55:06;;;;;;;8.15;7.22;;;22.70;64.30;;;;;;4991871;28;20042;-68
2023/06/11 01:57:32;;;;;;;7.63;6.85;;;22.70;64.40;;;;;;4992090;28;20045;-68
2023/06/11 01:59:58;;;;;;;7.10;6.35;;;22.70;64.30;;;;;;4999074;28;20038;-67
2023/06/11 02:02:26;;;;;;;8.35;6.53;;;22.70;64.40;;;;;;4995555;28;20099;-67
2023/06/11 02:04:51;;;;;;;8.30;6.47;;;22.70;64.40;;;;;;4975331;28;20113;-67
2023/06/11 02:07:17;;;;;;;7.82;6.63;;;22.70;64.30;;;;;;5003403;28;20219;-67
2023/06/11 02:09:42;;;;;;;7.20;6.47;;;22.70;64.30;;;;;;4999290;28;20030;-67
2023/06/11 02:12:08;;;;;;;8.90;7.05;;;22.70;64.30;;;;;;5002368;28;20181;-68
2023/06/11 02:14:33;;;;;;;9.05;6.03;;;22.70;64.30;;;;;;5000381;28;20037;-67
2023/06/11 02:16:59;;;;;;;8.52;6.13;;;22.70;64.30;;;;;;5003018;28;20557;-67
2023/06/11 02:19:24;;;;;;;7.28;6.55;;;22.70;64.40;;;;;;4999279;28;20030;-66
2023/06/11 02:21:50;;;;;;;7.18;5.88;;;22.70;64.30;;;;;;4996963;28;20067;-67
2023/06/11 02:24:15;;;;;;;7.40;6.60;;;22.70;64.20;;;;;;4996224;28;20033;-68
2023/06/11 02:26:41;;;;;;;7.25;6.30;;;22.70;64.40;;;;;;5002924;28;20041;-67
2023/06/11 02:29:06;;;;;;;7.45;6.72;;;22.70;64.30;;;;;;5001059;28;20034;-67
2023/06/11 02:31:32;;;;;;;7.18;6.47;;;22.70;64.30;;;;;;5001064;28;20149;-68
2023/06/11 02:33:57;;;;;;;6.80;6.20;;;22.70;64.30;;;;;;4997070;28;20041;-67
2023/06/11 02:36:23;;;;;;;6.50;5.90;;;22.70;64.20;;;;;;4998973;28;20084;-67
2023/06/11 02:38:48;;;;;;;6.57;5.93;;;22.70;64.40;;;;;;4999141;28;20030;-66
2023/06/11 02:41:15;;;;;;;7.22;5.97;;;22.70;64.20;;;;;;4997405;28;20661;-68
2023/06/11 02:43:41;;;;;;;6.63;5.85;;;22.70;64.30;;;;;;4996272;28;20025;-67
2023/06/11 02:46:06;;;;;;;8.73;5.78;;;22.70;64.90;;;;;;5000386;28;20045;-67
2023/06/11 02:48:32;;;;;;;6.95;6.25;;;22.70;64.30;;;;;;4997727;28;20043;-68
2023/06/11 02:50:57;;;;;;;6.53;5.82;;;22.70;64.30;;;;;;4998850;28;20152;-67
2023/06/11 02:53:23;;;;;;;6.50;5.68;;;22.70;64.30;;;;;;4994492;28;20030;-68
2023/06/11 02:55:48;;;;;;;6.57;5.88;;;22.70;64.20;;;;;;4998310;28;20386;-65
2023/06/11 02:58:14;;;;;;;6.13;5.53;;;22.70;64.20;;;;;;4993271;28;20022;-68
2023/06/11 03:00:39;;;;;;;5.93;5.32;;;22.70;64.20;;;;;;4994015;28;20037;-68
2023/06/11 03:03:05;;;;;;;6.45;5.78;;;22.70;64.20;;;;;;4998264;28;20038;-67
2023/06/11 03:05:30;;;;;;;6.15;5.40;;;22.60;64.20;;;;;;4998216;28;20375;-67
2023/06/11 03:07:56;;;;;;;5.95;5.15;;;22.70;64.80;;;;;;5001042;28;20034;-68
2023/06/11 03:10:22;;;;;;;5.82;5.22;;;22.70;64.20;;;;;;4996659;28;20037;-67
2023/06/11 03:12:47;;;;;;;6.13;5.53;;;22.70;64.20;;;;;;4997170;28;20719;-68
2023/06/11 03:15:13;;;;;;;6.60;5.85;;;22.70;64.20;;;;;;4999356;28;20030;-68
2023/06/11 03:17:38;;;;;;;5.65;5.15;;;22.60;64.10;;;;;;4999496;28;20030;-68
2023/06/11 03:20:05;;;;;;;7.57;5.47;;;22.70;64.20;;;;;;4995509;28;20041;-67
2023/06/11 03:22:30;;;;;;;6.13;5.53;;;22.60;64.10;;;;;;5000774;28;20545;-68
2023/06/11 03:24:56;;;;;;;6.00;5.40;;;22.60;64.10;;;;;;4997879;28;20041;-67
2023/06/11 03:27:21;;;;;;;6.78;5.20;;;22.60;64.20;;;;;;4994810;28;20026;-67
2023/06/11 03:29:47;;;;;;;5.85;5.25;;;22.60;64.10;;;;;;4996374;28;20062;-68
2023/06/11 03:32:12;;;;;;;5.47;4.82;;;22.60;64.10;;;;;;4996752;28;20038;-68
2023/06/11 03:34:38;;;;;;;5.88;4.90;;;22.60;64.00;;;;;;4996055;28;20121;-67
2023/06/11 03:37:03;;;;;;;5.07;4.45;;;22.60;64.00;;;;;;4997698;28;20034;-68
2023/06/11 03:39:29;;;;;;;5.35;4.70;;;22.70;64.00;;;;;;4995674;28;20043;-68
2023/06/11 03:41:54;;;;;;;6.82;5.57;;;22.70;64.00;;;;;;4999511;28;20037;-66
2023/06/11 03:44:20;;;;;;;5.28;4.78;;;22.70;64.00;;;;;;4999585;28;20539;-68
2023/06/11 03:46:46;;;;;;;5.65;5.15;;;22.70;64.00;;;;;;5000483;28;20084;-67
2023/06/11 03:49:12;;;;;;;5.68;5.10;;;22.70;63.90;;;;;;4998751;28;20404;-68
2023/06/11 03:51:37;;;;;;;5.53;5.03;;;22.70;64.00;;;;;;4998405;28;20053;-67
2023/06/11 03:54:03;;;;;;;5.38;4.88;;;22.70;63.90;;;;;;4996819;28;20109;-67
2023/06/11 03:56:28;;;;;;;5.47;4.97;;;22.70;64.00;;;;;;4998407;28;20516;-68
2023/06/11 03:58:54;;;;;;;5.32;4.82;;;22.70;64.00;;;;;;4993270;28;20592;-67
2023/06/11 04:01:20;;;;;;;5.43;4.50;;;22.70;64.60;;;;;;4998129;28;20037;-65
2023/06/11 04:03:46;;;;;;;6.10;5.15;;;22.70;64.00;;;;;;4995647;28;20029;-67
2023/06/11 04:06:11;;;;;;;6.20;4.93;;;22.60;63.90;;;;;;4998369;28;21191;-68
2023/06/11 04:08:38;;;;;;;5.13;4.63;;;22.60;63.80;;;;;;4998201;28;20659;-67
2023/06/11 04:11:03;;;;;;;5.13;4.63;;;22.70;63.90;;;;;;4995661;28;20033;-67
2023/06/11 04:13:28;;;;;;;4.88;4.47;;;22.70;64.00;;;;;;4998095;28;20402;-68
2023/06/11 04:15:54;;;;;;;5.68;4.63;;;22.60;63.80;;;;;;4998236;28;20018;-67
2023/06/11 04:18:20;;;;;;;4.97;4.47;;;22.60;63.80;;;;;;4996138;28;20026;-67
2023/06/11 04:20:46;;;;;;;5.13;4.63;;;22.60;63.70;;;;;;4994473;28;20038;-67
2023/06/11 04:23:11;;;;;;;5.68;4.88;;;22.60;63.80;;;;;;4995515;28;20041;-68
2023/06/11 04:25:39;;;;;;;5.07;4.57;;;22.60;63.80;;;;;;4993261;28;20036;-68
2023/06/11 04:28:05;;;;;;;6.70;4.93;;;22.60;63.90;;;;;;4996493;28;20038;-66
2023/06/11 04:30:31;;;;;;;5.10;4.68;;;22.60;63.80;;;;;;4996291;28;20072;-66
2023/06/11 04:32:57;;;;;;;4.95;4.45;;;22.60;63.90;;;;;;4996967;28;20034;-66
2023/06/11 04:35:25;;;;;;;4.70;4.28;;;22.60;63.80;;;;;;4994282;28;20030;-67
2023/06/11 04:37:52;;;;;;;5.13;4.65;;;22.60;63.80;;;;;;4993492;28;20026;-66
2023/06/11 04:40:19;;;;;;;4.32;3.92;;;22.70;63.70;;;;;;4991932;28;20041;-67
2023/06/11 04:42:46;;;;;;;5.22;4.40;;;22.70;63.70;;;;;;4996172;28;20124;-67
2023/06/11 04:45:11;;;;;;;4.45;4.05;;;22.70;63.60;;;;;;4993565;28;20664;-67
2023/06/11 04:47:37;;;;;;;5.45;4.43;;;22.70;63.60;;;;;;4995388;28;20102;-68
2023/06/11 04:50:04;;;;;;;4.93;4.43;;;22.70;63.60;;;;;;4993364;28;20052;-67
2023/06/11 04:52:35;;;;;;;5.55;4.35;;;22.70;63.60;;;;;;4990869;28;20038;-66
2023/06/11 04:55:01;;;;;;;4.43;4.03;;;22.80;63.80;;;;;;4987011;28;20089;-67
2023/06/11 04:57:28;;;;;;;4.38;3.97;;;22.80;63.90;;;;;;4993924;28;20034;-63
2023/06/11 04:59:53;;;;;;;7.70;4.20;;;22.80;64.00;;;;;;4996156;28;20488;-68
2023/06/11 05:02:21;;;;;;;4.40;4.00;;;22.80;64.20;;;;;;4994504;28;20072;-66
2023/06/11 05:04:49;;;;;;;4.75;4.22;;;22.80;64.20;;;;;;4996914;28;20117;-67
2023/06/11 05:07:17;;;;;;;4.53;3.90;;;22.80;64.20;;;;;;4995921;28;20057;-67
2023/06/11 05:09:43;;;;;;;5.10;4.60;;;22.80;64.20;;;;;;4997565;28;20038;-67
2023/06/11 05:12:09;;;;;;;4.03;3.58;;;22.80;64.30;;;;;;4999334;28;20542;-67
2023/06/11 05:14:35;;;;;;;4.30;3.90;;;22.80;64.30;;;;;;4996585;28;20030;-67
2023/06/11 05:17:01;;;;;;;4.55;4.05;;;22.80;64.30;;;;;;5000536;28;20184;-67
2023/06/11 05:19:27;;;;;;;4.60;3.50;;;22.80;64.30;;;;;;5002138;28;20511;-63
2023/06/11 05:21:52;;;;;;;4.40;4.05;;;22.80;64.30;;;;;;4994843;28;20074;-68
2023/06/11 05:24:21;;;;;;;5.78;4.18;;;22.80;64.30;;;;;;5001059;28;20033;-67
2023/06/11 05:26:47;;;;;;;4.97;4.32;;;22.90;64.40;;;;;;4996827;28;20026;-68
2023/06/11 05:29:12;;;;;;;4.47;4.07;;;22.80;64.40;;;;;;4995001;28;20026;-68
2023/06/11 05:31:38;;;;;;;4.55;3.33;;;22.90;64.50;;;;;;4998093;28;20505;-67
2023/06/11 05:34:04;;;;;;;4.65;4.20;;;22.90;64.30;;;;;;4998014;28;20553;-67
2023/06/11 05:36:30;;;;;;;3.92;3.60;;;22.90;64.40;;;;;;5006903;28;20042;-68
2023/06/11 05:38:55;;;;;;;3.80;3.47;;;22.90;64.40;;;;;;4998828;28;20022;-67
2023/06/11 05:41:21;;;;;;;3.90;3.50;;;22.90;64.30;;;;;;5000271;28;20582;-68
2023/06/11 05:43:47;;;;;;;4.65;3.22;;;22.90;64.40;;;;;;5002962;28;20034;-68
2023/06/11 05:46:13;;;;;;;6.35;4.30;;;22.90;64.40;;;;;;4998835;28;20110;-67
2023/06/11 05:48:40;;;;;;;5.03;4.25;;;22.90;64.40;;;;;;4996837;28;20022;-67
2023/06/11 05:51:06;;;;;;;4.10;3.63;;;22.90;64.40;;;;;;4997682;28;20064;-67
2023/06/11 05:53:32;;;;;;;4.85;3.85;;;22.90;64.40;;;;;;4998713;28;20038;-67
2023/06/11 05:56:03;;;;;;;4.72;3.33;;;22.90;64.30;;;;;;4998844;28;20033;-64
2023/06/11 05:58:35;;;;;;;4.03;3.47;;;22.80;64.30;;;;;;4995151;28;20515;-67
2023/06/11 06:01:01;;;;;;;4.22;3.60;;;22.80;64.20;;;;;;4998428;28;20034;-68
2023/06/11 06:03:29;;;;;;;3.80;3.40;;;22.90;64.40;;;;;;4993880;28;20030;-64
2023/06/11 06:05:55;;;;;;;5.68;3.72;;;22.90;64.40;;;;;;4996139;28;20065;-67
2023/06/11 06:08:20;;;;;;;4.65;3.80;;;22.90;64.30;;;;;;4993146;28;20058;-68
2023/06/11 06:10:46;;;;;;;4.43;4.03;;;22.90;64.20;;;;;;4998687;28;20030;-67
2023/06/11 06:13:11;;;;;;;3.65;3.35;;;22.90;64.20;;;;;;4999922;28;20497;-67
2023/06/11 06:15:37;;;;;;;7.80;3.63;;;22.90;64.20;;;;;;5001796;28;20040;-67
2023/06/11 06:18:05;;;;;;;4.65;3.42;;;22.90;64.20;;;;;;5001452;28;20099;-67
2023/06/11 06:20:30;;;;;;;3.75;3.45;;;22.90;64.20;;;;;;4998711;28;20038;-69
2023/06/11 06:22:55;;;;;;;4.25;3.85;;;22.80;64.20;;;;;;5002634;28;20030;-67
2023/06/11 06:25:24;;;;;;;4.65;3.85;;;22.90;64.30;;;;;;5000331;28;20025;-67
2023/06/11 06:27:50;;;;;;;4.30;3.90;;;22.90;64.30;;;;;;4995333;28;21422;-68
2023/06/11 06:30:16;;;;;;;4.32;3.90;;;22.80;64.20;;;;;;4999312;28;20030;-68
2023/06/11 06:32:43;;;;;;;4.82;3.95;;;22.80;64.20;;;;;;4999936;28;20570;-68
2023/06/11 06:35:08;;;;;;;4.18;3.78;;;22.80;64.20;;;;;;4996734;28;20079;-68
2023/06/11 06:37:34;;;;;;;3.45;3.00;;;22.80;64.10;;;;;;4995168;28;20121;-68
2023/06/11 06:40:00;;;;;;;5.45;3.80;;;22.80;64.10;;;;;;5001661;28;20587;-67
2023/06/11 06:42:25;;;;;;;4.00;3.60;;;22.80;64.00;;;;;;5006583;28;20068;-66
2023/06/11 06:44:50;;;;;;;3.97;3.58;;;22.80;64.20;;;;;;5000280;28;20050;-65
2023/06/11 06:47:16;;;;;;;4.35;3.90;;;22.80;64.00;;;;;;5000567;28;20049;-66
2023/06/11 06:49:41;;;;;;;4.13;3.72;;;22.80;63.90;;;;;;4996818;28;20033;-67
2023/06/11 06:52:11;;;;;;;5.00;3.58;;;22.80;63.80;;;;;;5000255;28;20429;-69
2023/06/11 06:54:36;;;;;;;5.00;3.38;;;22.80;64.20;;;;;;4999814;28;20033;-66
2023/06/11 06:57:02;;;;;;;4.32;3.65;;;22.80;64.00;;;;;;4997027;28;20057;-66
2023/06/11 06:59:28;;;;;;;6.47;3.97;;;22.80;63.80;;;;;;4994965;28;20030;-65
2023/06/11 07:01:53;;;;;;;5.57;3.17;;;22.80;63.50;;;;;;4997610;28;20029;-66
2023/06/11 07:04:19;;;;;;;4.18;3.78;;;22.80;63.50;;;;;;4994841;28;20060;-66
2023/06/11 07:06:44;;;;;;;5.03;3.72;;;22.80;63.50;;;;;;4993171;28;20092;-67
2023/06/11 07:09:10;;;;;;;4.93;3.95;;;22.80;63.40;;;;;;4997881;28;20037;-68
2023/06/11 07:11:36;;;;;;;5.25;4.10;;;22.80;63.30;;;;;;4996761;28;20030;-67
2023/06/11 07:14:02;;;;;;;5.70;3.63;;;22.80;63.30;;;;;;5000023;28;20433;-65
2023/06/11 07:16:27;;;;;;;9.93;3.95;;;22.80;63.20;;;;;;4999675;28;20030;-64
2023/06/11 07:18:53;;;;;;;8.30;4.82;;;22.80;63.20;;;;;;5001128;28;20034;-66
2023/06/11 07:21:18;;;;;;;5.55;3.67;;;22.80;63.10;;;;;;5000183;28;20516;-67
2023/06/11 07:23:43;;;;;;;5.88;4.40;;;22.80;62.60;;;;;;4978937;28;20088;-66
2023/06/11 07:26:13;;;;;;;5.78;4.53;;;22.80;62.90;;;;;;4996163;28;20026;-66
2023/06/11 07:28:39;;;;;;;6.13;4.20;;;22.80;62.70;;;;;;4990918;28;20114;-66
2023/06/11 07:31:05;;;;;;;6.20;4.50;;;22.70;62.10;;;;;;4995198;28;20042;-66
2023/06/11 07:33:30;;;;;;;6.28;4.38;;;22.70;62.10;;;;;;4993624;28;20109;-67
2023/06/11 07:35:56;;;;;;;7.38;4.68;;;22.70;62.00;;;;;;4991798;28;20046;-66
2023/06/11 07:38:22;;;;;;;8.82;4.85;;;22.70;61.80;;;;;;4999835;28;20030;-66
2023/06/11 07:40:47;;;;;;;5.20;4.70;;;22.70;62.20;;;;;;4997312;28;20034;-66
2023/06/11 07:43:13;;;;;;;6.55;4.38;;;22.70;61.60;;;;;;4998557;28;20135;-66
2023/06/11 07:45:38;;;;;;;5.85;4.68;;;22.70;61.40;;;;;;4997456;28;20117;-66
2023/06/11 07:48:04;;;;;;;7.32;4.93;;;22.70;61.20;;;;;;4996688;28;20030;-63
2023/06/11 07:50:30;;;;;;;7.13;4.20;;;22.70;61.10;;;;;;4998512;28;20429;-66
2023/06/11 07:52:56;;;;;;;6.20;4.47;;;22.70;61.20;;;;;;4993693;28;20041;-66
2023/06/11 07:55:22;;;;;;;4.65;4.25;;;22.70;61.20;;;;;;4995777;28;20613;-67
2023/06/11 07:57:47;;;;;;;5.65;4.72;;;22.70;60.90;;;;;;4985190;28;20556;-65
2023/06/11 08:00:15;;;;;;;6.32;5.22;;;22.70;61.10;;;;;;4988888;28;20413;-68
2023/06/11 08:02:41;;;;;;;4.60;4.00;;;22.70;61.00;;;;;;4991494;28;20030;-65
2023/06/11 08:05:08;;;;;;;5.53;4.88;;;22.70;60.70;;;;;;4992090;28;20065;-64
2023/06/11 08:07:33;;;;;;;4.70;4.25;;;22.70;61.80;;;;;;4999839;28;20036;-64
2023/06/11 08:09:59;;;;;;;6.20;4.47;;;22.60;61.60;;;;;;4997119;28;20033;-64
2023/06/11 08:12:25;;;;;;;4.47;4.03;;;22.60;61.60;;;;;;4996024;28;20029;-65
2023/06/11 08:14:50;;;;;;;4.63;3.80;;;22.60;61.10;;;;;;4994074;28;20107;-65
2023/06/11 08:17:16;;;;;;;7.55;4.75;;;22.60;60.60;;;;;;4998337;28;20030;-65
2023/06/11 08:19:41;;;;;;;6.00;4.53;;;22.60;60.60;;;;;;4993347;28;20076;-63
2023/06/11 08:22:07;;;;;;;9.18;4.30;;;22.60;60.30;;;;;;4995236;28;20030;-65
2023/06/11 08:24:32;;;;;;;5.90;4.63;;;22.70;61.40;;;;;;4993916;28;20084;-64
2023/06/11 08:26:58;;;;;;;6.00;4.65;;;22.70;61.50;;;;;;4995279;28;20038;-65
2023/06/11 08:29:23;;;;;;;6.85;4.53;;;22.70;61.20;;;;;;4991437;28;20049;-64
2023/06/11 08:31:49;;;;;;;7.78;4.35;;;22.70;60.30;;;;;;4991540;28;20040;-62
2023/06/11 08:34:14;;;;;;;6.25;4.47;;;22.70;59.90;;;;;;4993895;28;20085;-64
2023/06/11 08:36:43;;;;;;;6.75;4.40;;;22.80;60.10;;;;;;4994922;28;20026;-64
2023/06/11 08:39:09;;;;;;;8.23;4.30;;;22.70;60.40;;;;;;4997725;28;20081;-64
2023/06/11 08:41:36;;;;;;;7.18;4.22;;;22.70;60.50;;;;;;4995714;28;20049;-61
2023/06/11 08:44:01;;;;;;;7.50;4.20;;;22.70;60.30;;;;;;4996566;28;20053;-65
2023/06/11 08:46:33;;;;;;;7.10;4.43;;;22.70;60.50;;;;;;5001098;28;20034;-63
2023/06/11 08:49:04;;;;;;;7.70;4.35;;;22.70;60.60;;;;;;4998606;28;20149;-64
2023/06/11 08:51:35;;;;;;;5.00;3.72;;;22.80;60.50;;;;;;4995998;28;20038;-64
2023/06/11 08:54:01;;;;;;;5.20;4.03;;;22.70;60.60;;;;;;4993895;28;20073;-65
2023/06/11 08:56:27;;;;;;;7.30;4.40;;;22.70;60.30;;;;;;4993277;28;20035;-66
2023/06/11 08:58:53;;;;;;;6.28;4.00;;;22.70;60.00;;;;;;4999042;28;20032;-63
2023/06/11 09:01:21;;;;;;;9.50;4.20;;;22.70;59.70;;;;;;5012310;28;20038;-64
2023/06/11 09:03:46;;;;;;;5.95;4.20;;;22.70;59.90;;;;;;5016516;28;20034;-65
2023/06/11 09:06:12;;;;;;;5.80;4.90;;;22.70;59.70;;;;;;5000069;28;20049;-67
2023/06/11 09:08:37;;;;;;;5.35;4.40;;;22.70;59.60;;;;;;5001954;28;20076;-67
2023/06/11 09:11:04;;;;;;;8.52;4.60;;;22.70;59.80;;;;;;4997515;28;20568;-67
2023/06/11 09:13:29;;;;;;;3.88;3.47;;;22.70;59.50;;;;;;4997760;28;20125;-67
2023/06/11 09:15:55;;;;;;;4.47;3.97;;;22.70;59.90;;;;;;4996555;28;20122;-65
2023/06/11 09:18:27;;;;;;;7.57;4.20;;;22.70;59.60;;;;;;4997902;28;20512;-66
2023/06/11 09:20:55;;;;;;;4.90;3.97;;;22.70;59.60;;;;;;4992907;28;20034;-66
2023/06/11 09:23:30;;;;;;;6.78;4.30;;;22.70;59.70;;;;;;4991933;28;20112;-66
2023/06/11 09:25:56;;;;;;;7.85;4.28;;;22.70;59.40;;;;;;4991245;28;20030;-66
2023/06/11 09:28:31;;;;;;;5.47;3.95;;;22.70;59.50;;;;;;4992818;28;20037;-66
2023/06/11 09:30:58;;;;;;;5.30;4.80;;;22.70;59.50;;;;;;4989096;28;20108;-67
2023/06/11 09:33:24;;;;;;;5.25;4.47;;;22.70;59.40;;;;;;4993536;28;20373;-67
2023/06/11 09:35:50;;;;;;;5.55;4.45;;;22.70;59.40;;;;;;4995367;28;20034;-66
2023/06/11 09:38:17;;;;;;;5.05;3.85;;;22.70;59.40;;;;;;4996645;28;20062;-66
2023/06/11 09:40:47;;;;;;;6.30;4.60;;;22.70;59.40;;;;;;4995905;28;20026;-66
2023/06/11 09:43:14;;;;;;;5.82;4.18;;;22.70;59.50;;;;;;4997566;28;20453;-66
2023/06/11 09:45:40;;;;;;;5.70;4.45;;;22.70;59.60;;;;;;4999441;28;20401;-66
2023/06/11 09:48:11;;;;;;;4.65;3.80;;;22.70;59.70;;;;;;4998418;28;20493;-66
2023/06/11 09:50:37;;;;;;;5.97;4.45;;;22.70;59.60;;;;;;4995873;28;20034;-66
2023/06/11 09:53:03;;;;;;;5.50;4.57;;;22.70;59.80;;;;;;4996172;28;20041;-68
2023/06/11 09:55:31;;;;;;;5.18;4.70;;;22.70;59.50;;;;;;4994267;28;20034;-66
2023/06/11 09:57:57;;;;;;;4.95;4.38;;;22.70;59.60;;;;;;4999015;28;20037;-66
2023/06/11 10:00:23;;;;;;;5.00;4.50;;;22.70;59.40;;;;;;4994519;28;20145;-66
2023/06/11 10:02:48;;;;;;;5.57;4.35;;;22.70;59.60;;;;;;4996573;28;20109;-66
2023/06/11 10:05:14;;;;;;;5.50;4.95;;;22.70;59.50;;;;;;5005576;28;20601;-66
2023/06/11 10:07:45;;;;;;;4.68;4.10;;;22.70;59.60;;;;;;5006155;28;20515;-67
2023/06/11 10:10:13;;;;;;;4.78;4.32;;;22.70;60.00;;;;;;5001335;28;20025;-66
2023/06/11 10:12:39;;;;;;;4.72;4.30;;;22.70;59.70;;;;;;5002273;28;20568;-65
2023/06/11 10:15:10;;;;;;;4.97;4.47;;;22.70;59.90;;;;;;4999346;28;20145;-67
2023/06/11 10:17:35;;;;;;;5.43;4.82;;;22.70;60.00;;;;;;4998726;28;20172;-67
2023/06/11 10:20:01;;;;;;;5.10;4.60;;;22.70;60.10;;;;;;4997217;28;20038;-67
2023/06/11 10:22:34;;;;;;;4.85;4.35;;;22.70;60.00;;;;;;4995083;28;20505;-67
2023/06/11 10:25:01;;;;;;;5.63;5.13;;;22.70;59.70;;;;;;4992565;28;20031;-66
2023/06/11 10:27:42;;;;;;;5.20;4.43;;;22.70;59.80;;;;;;4999478;28;20049;-66
2023/06/11 10:30:08;;;;;;;5.05;4.40;;;22.70;59.80;;;;;;4996261;28;20037;-67
2023/06/11 10:32:34;;;;;;;5.30;4.18;;;22.70;59.90;;;;;;5001056;28;20037;-67
2023/06/11 10:35:03;;;;;;;5.55;4.75;;;22.70;59.60;;;;;;5001615;28;20022;-66
2023/06/11 10:37:36;;;;;;;5.38;4.88;;;22.70;59.70;;;;;;5001092;28;20064;-67
2023/06/11 10:40:07;;;;;;;4.93;4.53;;;22.70;59.60;;;;;;5000789;28;20570;-67
2023/06/11 10:42:38;;;;;;;5.07;4.57;;;22.70;59.60;;;;;;4995324;28;20046;-67
2023/06/11 10:45:12;;;;;;;6.25;4.90;;;22.70;59.50;;;;;;4996935;28;20034;-67
2023/06/11 10:47:51;;;;;;;4.90;4.38;;;22.70;59.50;;;;;;4995974;28;20033;-64
2023/06/11 10:50:25;;;;;;;5.20;4.60;;;22.70;59.50;;;;;;4995151;28;20030;-66
2023/06/11 10:52:58;;;;;;;5.57;5.03;;;22.70;59.60;;;;;;4988353;28;20113;-66
2023/06/11 10:55:29;;;;;;;5.70;5.10;;;22.70;59.60;;;;;;4996229;28;20042;-66
2023/06/11 10:57:58;;;;;;;5.55;5.05;;;22.70;59.60;;;;;;4996338;28;20034;-66
2023/06/11 11:00:32;;;;;;;4.63;4.15;;;22.70;59.60;;;;;;4992128;28;20133;-67
2023/06/11 11:02:59;;;;;;;4.43;4.03;;;22.70;59.70;;;;;;4994083;28;20038;-67
2023/06/11 11:05:28;;;;;;;5.25;4.38;;;22.70;59.90;;;;;;4999614;28;20772;-67
2023/06/11 11:07:55;;;;;;;5.15;4.65;;;22.70;59.70;;;;;;4997690;28;20061;-67
2023/06/11 11:10:27;;;;;;;4.75;4.20;;;22.70;59.80;;;;;;4998621;28;20390;-66
2023/06/11 11:12:53;;;;;;;5.35;4.38;;;22.70;59.90;;;;;;4996934;28;20034;-66
2023/06/11 11:15:19;;;;;;;4.40;4.00;;;22.70;60.00;;;;;;4994083;28;20108;-66
2023/06/11 11:17:45;;;;;;;4.75;4.25;;;22.70;60.10;;;;;;4993448;28;20461;-66
2023/06/11 11:20:17;;;;;;;5.05;4.50;;;22.70;60.10;;;;;;4997886;28;20080;-67
2023/06/11 11:22:51;;;;;;;4.55;3.90;;;22.70;60.20;;;;;;4992089;28;20034;-67
2023/06/11 11:25:18;;;;;;;4.30;3.90;;;22.70;60.20;;;;;;4998640;28;20034;-66
2023/06/11 11:27:44;;;;;;;4.20;3.80;;;22.70;60.20;;;;;;4998087;28;20402;-66
2023/06/11 11:30:10;;;;;;;4.60;4.20;;;22.70;60.20;;;;;;4994232;28;20027;-66
2023/06/11 11:32:35;;;;;;;4.75;4.22;;;22.70;60.20;;;;;;4997946;28;20141;-66
2023/06/11 11:35:03;;;;;;;4.75;3.97;;;22.70;60.10;;;;;;5000236;28;20037;-66
2023/06/11 11:37:28;;;;;;;4.53;4.07;;;22.70;60.10;;;;;;4998315;28;20026;-66
2023/06/11 11:39:54;;;;;;;5.07;4.55;;;22.70;60.10;;;;;;4997849;28;20650;-66
2023/06/11 11:42:22;;;;;;;6.68;4.60;;;22.70;60.30;;;;;;4994116;28;20121;-66
2023/06/11 11:44:51;;;;;;;5.43;4.63;;;22.70;60.30;;;;;;4996949;28;20394;-67
2023/06/11 11:47:20;;;;;;;4.35;3.95;;;22.70;60.40;;;;;;4993578;28;20045;-66
2023/06/11 11:49:55;;;;;;;5.10;4.22;;;22.70;60.90;;;;;;5008880;28;20065;-66
2023/06/11 11:52:22;;;;;;;4.68;4.20;;;22.80;61.10;;;;;;4988411;28;20053;-65
2023/06/11 11:54:48;;;;;;;4.30;3.90;;;22.70;61.20;;;;;;4991961;28;20065;-66
2023/06/11 11:57:18;;;;;;;5.25;4.40;;;22.80;61.20;;;;;;4991249;28;20035;-65
2023/06/11 11:59:43;;;;;;;5.32;4.28;;;22.80;61.30;;;;;;4997048;28;20046;-66
2023/06/11 12:02:09;;;;;;;5.03;4.07;;;22.80;61.40;;;;;;4997208;28;20053;-68
2023/06/11 12:04:45;;;;;;;7.82;4.60;;;22.80;61.40;;;;;;5002064;28;20030;-66
2023/06/11 12:07:15;;;;;;;4.68;4.05;;;22.80;61.40;;;;;;4991809;28;20557;-65
2023/06/11 12:09:41;;;;;;;4.53;4.13;;;22.80;61.30;;;;;;4999015;28;20084;-66
2023/06/11 12:12:08;;;;;;;5.50;4.50;;;22.80;61.10;;;;;;4995860;28;20413;-67
2023/06/11 12:14:34;;;;;;;5.20;4.70;;;22.80;60.90;;;;;;4992916;28;20042;-66
2023/06/11 12:16:59;;;;;;;6.20;4.57;;;22.80;61.00;;;;;;4991625;28;20541;-66
2023/06/11 12:19:28;;;;;;;7.22;5.18;;;22.80;60.90;;;;;;4986748;28;20121;-67
2023/06/11 12:21:55;;;;;;;4.88;4.47;;;22.80;61.00;;;;;;4993725;28;20446;-67
2023/06/11 12:24:21;;;;;;;6.00;5.32;;;22.80;61.00;;;;;;4991447;28;20167;-66
2023/06/11 12:26:48;;;;;;;5.38;4.88;;;22.80;61.00;;;;;;4994006;28;20038;-66
2023/06/11 12:29:14;;;;;;;5.15;4.68;;;22.80;60.90;;;;;;4989961;28;20110;-66
2023/06/11 12:31:39;;;;;;;4.80;4.28;;;22.80;61.00;;;;;;4996771;28;20085;-65
2023/06/11 12:34:06;;;;;;;4.88;4.38;;;22.80;60.90;;;;;;4998946;28;20057;-66
2023/06/11 12:36:35;;;;;;;5.47;4.75;;;22.80;60.80;;;;;;5000565;28;20038;-66
2023/06/11 12:39:02;;;;;;;5.18;4.40;;;22.80;60.80;;;;;;4996925;28;20026;-66
2023/06/11 12:41:28;;;;;;;5.18;4.63;;;22.80;60.80;;;;;;4996112;28;20033;-66
2023/06/11 12:43:53;;;;;;;6.43;4.10;;;22.80;60.70;;;;;;4993448;28;20115;-67